SBI5341 UNNT-UNOO
Flight info
| Callsign | SBI5341 |
|---|---|
| Flight time | 1h 0m |
| Altitude | 34000 |
| Route | OGAMA A308 OSNAB G828 SZ A487 URUKI A844 RUMOD |
| Aircraft | E170/M-SDE2E3FGHIRWXY/LB1 |
Departure
| Time | 2026-05-07 06:41 |
|---|---|
| Airport | Novosibirsk Tolmachevo Airport (UNNT) |
Arrival
| Time | 2026-05-07 07:42 |
|---|---|
| Airport | Omsk Central Airport (UNOO) |
| Time | Latitude | Longitude | Altitude | Speed | Heading |
|---|---|---|---|---|---|
| 2026-05-07 06:18 | 55.00929 | 82.66203 | 371 ft | 0 kts | 170° |
| 2026-05-07 06:34 | 55.00949 | 82.66200 | 371 ft | 4 kts | 177° |
| 2026-05-07 06:34 | 55.00961 | 82.66197 | 371 ft | 3 kts | 170° |
| 2026-05-07 06:35 | 55.00987 | 82.66210 | 371 ft | 2 kts | 250° |
| 2026-05-07 06:35 | 55.00992 | 82.66232 | 371 ft | 4 kts | 246° |
| 2026-05-07 06:35 | 55.01008 | 82.66263 | 371 ft | 4 kts | 193° |
| 2026-05-07 06:35 | 55.01032 | 82.66260 | 371 ft | 4 kts | 172° |
| 2026-05-07 06:36 | 55.01050 | 82.66256 | 371 ft | 3 kts | 172° |
| 2026-05-07 06:38 | 55.01047 | 82.66257 | 371 ft | 1 kts | 172° |
| 2026-05-07 06:38 | 55.01017 | 82.66265 | 371 ft | 5 kts | 165° |
| 2026-05-07 06:38 | 55.01007 | 82.66297 | 371 ft | 6 kts | 87° |
| 2026-05-07 06:38 | 55.01027 | 82.66408 | 371 ft | 13 kts | 71° |
| 2026-05-07 06:39 | 55.01066 | 82.66572 | 371 ft | 16 kts | 68° |
| 2026-05-07 06:39 | 55.01136 | 82.66651 | 371 ft | 15 kts | 358° |
| 2026-05-07 06:39 | 55.01238 | 82.66625 | 371 ft | 14 kts | 350° |
| 2026-05-07 06:39 | 55.01331 | 82.66608 | 371 ft | 14 kts | 2° |
| 2026-05-07 06:40 | 55.01386 | 82.66615 | 372 ft | 5 kts | 315° |
| 2026-05-07 06:40 | 55.01385 | 82.66573 | 372 ft | 5 kts | 244° |
| 2026-05-07 06:40 | 55.01380 | 82.66550 | 372 ft | 0 kts | 260° |
| 2026-05-07 06:40 | 55.01361 | 82.66342 | 371 ft | 53 kts | 262° |
| 2026-05-07 06:41 | 55.01260 | 82.65238 | 371 ft | 130 kts | 260° |
| 2026-05-07 06:41 | 55.01085 | 82.63388 | 707 ft | 166 kts | 259° |
| 2026-05-07 06:41 | 55.00862 | 82.61373 | 1644 ft | 177 kts | 258° |
| 2026-05-07 06:41 | 55.00646 | 82.59181 | 2401 ft | 186 kts | 263° |
| 2026-05-07 06:42 | 55.00483 | 82.56856 | 3146 ft | 200 kts | 264° |
| 2026-05-07 06:42 | 55.00339 | 82.54360 | 3981 ft | 210 kts | 267° |
| 2026-05-07 06:42 | 55.00480 | 82.51711 | 4605 ft | 234 kts | 287° |
| 2026-05-07 06:42 | 55.01370 | 82.49182 | 5174 ft | 259 kts | 313° |
| 2026-05-07 06:43 | 55.02690 | 82.46963 | 6060 ft | 268 kts | 317° |
| 2026-05-07 06:43 | 55.04068 | 82.44757 | 7045 ft | 270 kts | 317° |
| 2026-05-07 06:43 | 55.05455 | 82.42533 | 7993 ft | 271 kts | 317° |
| 2026-05-07 06:43 | 55.06831 | 82.40326 | 8880 ft | 274 kts | 317° |
| 2026-05-07 06:44 | 55.08249 | 82.38069 | 9798 ft | 277 kts | 317° |
| 2026-05-07 06:44 | 55.09684 | 82.35802 | 10680 ft | 280 kts | 317° |
| 2026-05-07 06:44 | 55.11143 | 82.33518 | 11560 ft | 283 kts | 317° |
| 2026-05-07 06:44 | 55.12624 | 82.31220 | 12455 ft | 287 kts | 317° |
| 2026-05-07 06:45 | 55.14132 | 82.28903 | 13388 ft | 290 kts | 317° |
| 2026-05-07 06:45 | 55.15664 | 82.26568 | 14301 ft | 294 kts | 317° |
| 2026-05-07 06:45 | 55.17220 | 82.24219 | 15212 ft | 297 kts | 318° |
| 2026-05-07 06:45 | 55.18799 | 82.21854 | 16118 ft | 300 kts | 318° |
| 2026-05-07 06:46 | 55.20403 | 82.19475 | 16965 ft | 304 kts | 319° |
| 2026-05-07 06:46 | 55.21830 | 82.16732 | 17739 ft | 308 kts | 298° |
| 2026-05-07 06:46 | 55.22728 | 82.13317 | 18552 ft | 311 kts | 294° |
| 2026-05-07 06:46 | 55.23598 | 82.09831 | 19303 ft | 314 kts | 294° |
| 2026-05-07 06:47 | 55.24480 | 82.06303 | 20061 ft | 316 kts | 293° |
| 2026-05-07 06:47 | 55.25363 | 82.02753 | 20782 ft | 320 kts | 293° |
| 2026-05-07 06:47 | 55.26241 | 81.99212 | 21461 ft | 323 kts | 293° |
| 2026-05-07 06:47 | 55.27136 | 81.95580 | 22108 ft | 326 kts | 292° |
| 2026-05-07 06:48 | 55.28038 | 81.91912 | 22765 ft | 329 kts | 292° |
| 2026-05-07 06:48 | 55.28946 | 81.88205 | 23415 ft | 332 kts | 292° |
| 2026-05-07 06:48 | 55.29860 | 81.84463 | 24024 ft | 335 kts | 292° |
| 2026-05-07 06:48 | 55.30779 | 81.80692 | 24649 ft | 336 kts | 292° |
| 2026-05-07 06:49 | 55.31698 | 81.76906 | 25277 ft | 337 kts | 292° |
| 2026-05-07 06:49 | 55.32617 | 81.73109 | 25878 ft | 339 kts | 292° |
| 2026-05-07 06:49 | 55.33539 | 81.69286 | 26441 ft | 341 kts | 292° |
| 2026-05-07 06:49 | 55.34464 | 81.65432 | 27005 ft | 343 kts | 292° |
| 2026-05-07 06:50 | 55.35391 | 81.61563 | 27544 ft | 345 kts | 292° |
| 2026-05-07 06:50 | 55.36322 | 81.57666 | 28071 ft | 346 kts | 292° |
| 2026-05-07 06:50 | 55.37256 | 81.53740 | 28587 ft | 348 kts | 291° |
| 2026-05-07 06:50 | 55.38177 | 81.49853 | 29085 ft | 350 kts | 291° |
| 2026-05-07 06:51 | 55.39118 | 81.45877 | 29461 ft | 356 kts | 291° |
| 2026-05-07 06:51 | 55.40100 | 81.41783 | 29460 ft | 370 kts | 292° |
| 2026-05-07 06:51 | 55.41124 | 81.37535 | 29483 ft | 383 kts | 292° |
| 2026-05-07 06:51 | 55.42172 | 81.33178 | 29784 ft | 387 kts | 292° |
| 2026-05-07 06:52 | 55.43221 | 81.28804 | 30288 ft | 387 kts | 292° |
| 2026-05-07 06:52 | 55.44267 | 81.24426 | 30640 ft | 389 kts | 292° |
| 2026-05-07 06:52 | 55.45321 | 81.20004 | 30914 ft | 393 kts | 292° |
| 2026-05-07 06:52 | 55.46384 | 81.15536 | 31135 ft | 398 kts | 292° |
| 2026-05-07 06:53 | 55.47940 | 81.06021 | 31295 ft | 411 kts | 283° |
| 2026-05-07 06:53 | 55.48616 | 81.01099 | 31482 ft | 415 kts | 283° |
| 2026-05-07 06:53 | 55.49296 | 80.96130 | 31691 ft | 418 kts | 283° |
| 2026-05-07 06:54 | 55.49977 | 80.91156 | 32042 ft | 417 kts | 284° |
| 2026-05-07 06:54 | 55.50654 | 80.86202 | 32488 ft | 414 kts | 284° |
| 2026-05-07 06:54 | 55.51326 | 80.81272 | 32867 ft | 412 kts | 284° |
| 2026-05-07 06:54 | 55.51992 | 80.76368 | 33236 ft | 410 kts | 284° |
| 2026-05-07 06:55 | 55.52654 | 80.71485 | 33605 ft | 408 kts | 284° |
| 2026-05-07 06:55 | 55.53312 | 80.66614 | 33970 ft | 407 kts | 284° |
| 2026-05-07 06:55 | 55.54587 | 80.57114 | 34088 ft | 400 kts | 284° |
| 2026-05-07 06:56 | 55.55874 | 80.47470 | 34083 ft | 405 kts | 283° |
| 2026-05-07 06:56 | 55.57157 | 80.37782 | 34042 ft | 404 kts | 283° |
| 2026-05-07 06:57 | 55.58431 | 80.28112 | 34042 ft | 404 kts | 283° |
| 2026-05-07 06:57 | 55.59694 | 80.18449 | 34037 ft | 403 kts | 283° |
| 2026-05-07 06:58 | 55.60949 | 80.08790 | 34037 ft | 402 kts | 283° |
| 2026-05-07 06:58 | 55.62194 | 79.99149 | 34038 ft | 401 kts | 283° |
| 2026-05-07 06:59 | 55.62967 | 79.89410 | 34049 ft | 404 kts | 268° |
| 2026-05-07 06:59 | 55.61687 | 79.79670 | 34035 ft | 408 kts | 258° |
| 2026-05-07 07:00 | 55.60149 | 79.70047 | 34031 ft | 406 kts | 257° |
| 2026-05-07 07:00 | 55.58548 | 79.60472 | 34026 ft | 405 kts | 257° |
| 2026-05-07 07:01 | 55.56936 | 79.50945 | 34026 ft | 404 kts | 257° |
| 2026-05-07 07:01 | 55.55331 | 79.41504 | 34040 ft | 403 kts | 257° |
| 2026-05-07 07:02 | 55.53709 | 79.32021 | 34035 ft | 403 kts | 257° |
| 2026-05-07 07:02 | 55.52084 | 79.22565 | 34035 ft | 402 kts | 257° |
| 2026-05-07 07:03 | 55.50457 | 79.13139 | 34036 ft | 401 kts | 257° |
| 2026-05-07 07:03 | 55.48821 | 79.03716 | 34031 ft | 401 kts | 257° |
| 2026-05-07 07:04 | 55.47181 | 78.94318 | 34033 ft | 401 kts | 257° |
| 2026-05-07 07:04 | 55.45537 | 78.84953 | 34033 ft | 400 kts | 257° |
| 2026-05-07 07:05 | 55.43887 | 78.75598 | 34034 ft | 400 kts | 256° |
| 2026-05-07 07:05 | 55.42229 | 78.66245 | 34036 ft | 400 kts | 256° |
| 2026-05-07 07:06 | 55.40562 | 78.56890 | 34029 ft | 401 kts | 256° |
| 2026-05-07 07:06 | 55.38891 | 78.47540 | 34031 ft | 401 kts | 256° |
| 2026-05-07 07:07 | 55.37209 | 78.38184 | 34031 ft | 401 kts | 256° |
| 2026-05-07 07:07 | 55.36174 | 78.28687 | 34053 ft | 396 kts | 272° |
| 2026-05-07 07:08 | 55.36307 | 78.18977 | 34022 ft | 396 kts | 272° |
| 2026-05-07 07:08 | 55.36376 | 78.09284 | 34027 ft | 397 kts | 271° |
| 2026-05-07 07:09 | 55.36504 | 77.99590 | 34017 ft | 397 kts | 273° |
| 2026-05-07 07:09 | 55.36662 | 77.89942 | 34025 ft | 397 kts | 271° |
| 2026-05-07 07:10 | 55.36640 | 77.80219 | 34013 ft | 398 kts | 271° |
| 2026-05-07 07:10 | 55.36627 | 77.70492 | 34022 ft | 398 kts | 271° |
| 2026-05-07 07:11 | 55.36617 | 77.60762 | 34016 ft | 398 kts | 271° |
| 2026-05-07 07:11 | 55.36604 | 77.52660 | 34020 ft | 398 kts | 271° |
| 2026-05-07 07:12 | 55.36577 | 77.41284 | 34017 ft | 398 kts | 270° |
| 2026-05-07 07:12 | 55.36546 | 77.31611 | 34012 ft | 399 kts | 270° |
| 2026-05-07 07:13 | 55.36507 | 77.21853 | 34008 ft | 398 kts | 270° |
| 2026-05-07 07:13 | 55.36461 | 77.12110 | 34010 ft | 399 kts | 270° |
| 2026-05-07 07:14 | 55.36406 | 77.02354 | 34006 ft | 399 kts | 270° |
| 2026-05-07 07:14 | 55.36344 | 76.92607 | 34009 ft | 399 kts | 270° |
| 2026-05-07 07:15 | 55.36274 | 76.82837 | 34006 ft | 399 kts | 270° |
| 2026-05-07 07:15 | 55.36196 | 76.73062 | 34008 ft | 399 kts | 270° |
| 2026-05-07 07:16 | 55.36110 | 76.63298 | 34007 ft | 400 kts | 270° |
| 2026-05-07 07:16 | 55.36017 | 76.53512 | 34002 ft | 400 kts | 269° |
| 2026-05-07 07:17 | 55.35923 | 76.43808 | 34011 ft | 400 kts | 269° |
| 2026-05-07 07:17 | 55.35818 | 76.34032 | 33910 ft | 399 kts | 269° |
| 2026-05-07 07:18 | 55.35764 | 76.29180 | 33627 ft | 395 kts | 269° |
| 2026-05-07 07:18 | 55.35710 | 76.24344 | 33366 ft | 396 kts | 269° |
| 2026-05-07 07:18 | 55.35657 | 76.19501 | 33096 ft | 397 kts | 269° |
| 2026-05-07 07:18 | 55.35600 | 76.14632 | 32833 ft | 398 kts | 269° |
| 2026-05-07 07:19 | 55.35536 | 76.09763 | 32562 ft | 399 kts | 268° |
| 2026-05-07 07:19 | 55.35464 | 76.04871 | 32305 ft | 400 kts | 268° |
| 2026-05-07 07:19 | 55.35388 | 76.00000 | 32425 ft | 399 kts | 268° |
| 2026-05-07 07:19 | 55.35317 | 75.95077 | 31722 ft | 407 kts | 268° |
| 2026-05-07 07:20 | 55.35237 | 75.90113 | 31170 ft | 404 kts | 267° |
| 2026-05-07 07:20 | 55.35157 | 75.85213 | 30634 ft | 398 kts | 267° |
| 2026-05-07 07:20 | 55.35094 | 75.80367 | 30108 ft | 395 kts | 267° |
| 2026-05-07 07:20 | 55.35037 | 75.75554 | 29577 ft | 392 kts | 267° |
| 2026-05-07 07:21 | 55.34996 | 75.72396 | 29241 ft | 391 kts | 267° |
| 2026-05-07 07:21 | 55.34924 | 75.67625 | 28726 ft | 389 kts | 267° |
| 2026-05-07 07:21 | 55.34848 | 75.62876 | 28181 ft | 388 kts | 267° |
| 2026-05-07 07:21 | 55.34768 | 75.58165 | 27698 ft | 385 kts | 267° |
| 2026-05-07 07:22 | 55.34686 | 75.53467 | 27177 ft | 383 kts | 267° |
| 2026-05-07 07:22 | 55.34610 | 75.48793 | 26664 ft | 381 kts | 268° |
| 2026-05-07 07:22 | 55.34530 | 75.44148 | 26161 ft | 379 kts | 268° |
| 2026-05-07 07:22 | 55.34445 | 75.39536 | 25666 ft | 377 kts | 268° |
| 2026-05-07 07:23 | 55.34366 | 75.34950 | 25168 ft | 375 kts | 268° |
| 2026-05-07 07:23 | 55.34281 | 75.30387 | 24676 ft | 373 kts | 268° |
| 2026-05-07 07:23 | 55.34187 | 75.25846 | 24179 ft | 371 kts | 268° |
| 2026-05-07 07:23 | 55.34098 | 75.21326 | 23682 ft | 369 kts | 268° |
| 2026-05-07 07:24 | 55.34006 | 75.16840 | 23172 ft | 366 kts | 268° |
| 2026-05-07 07:24 | 55.33912 | 75.12452 | 22711 ft | 364 kts | 268° |
| 2026-05-07 07:24 | 55.33818 | 75.08009 | 22231 ft | 363 kts | 268° |
| 2026-05-07 07:24 | 55.33725 | 75.03584 | 21750 ft | 362 kts | 268° |
| 2026-05-07 07:25 | 55.33539 | 74.94773 | 20793 ft | 360 kts | 267° |
| 2026-05-07 07:25 | 55.33437 | 74.90397 | 20308 ft | 358 kts | 267° |
| 2026-05-07 07:25 | 55.33331 | 74.86040 | 19841 ft | 356 kts | 267° |
| 2026-05-07 07:26 | 55.33225 | 74.81701 | 19364 ft | 355 kts | 266° |
| 2026-05-07 07:26 | 55.33113 | 74.77381 | 18899 ft | 354 kts | 266° |
| 2026-05-07 07:26 | 55.33000 | 74.73072 | 18428 ft | 352 kts | 266° |
| 2026-05-07 07:26 | 55.32891 | 74.68787 | 17938 ft | 350 kts | 266° |
| 2026-05-07 07:27 | 55.32794 | 74.64526 | 17497 ft | 348 kts | 266° |
| 2026-05-07 07:27 | 55.32696 | 74.60287 | 17030 ft | 346 kts | 266° |
| 2026-05-07 07:27 | 55.32592 | 74.56072 | 16573 ft | 345 kts | 266° |
| 2026-05-07 07:27 | 55.32481 | 74.51875 | 16127 ft | 343 kts | 266° |
| 2026-05-07 07:28 | 55.32366 | 74.47749 | 15662 ft | 342 kts | 266° |
| 2026-05-07 07:28 | 55.32253 | 74.43592 | 15195 ft | 339 kts | 266° |
| 2026-05-07 07:28 | 55.32144 | 74.39470 | 14771 ft | 336 kts | 266° |
| 2026-05-07 07:28 | 55.32032 | 74.35401 | 14303 ft | 330 kts | 265° |
| 2026-05-07 07:29 | 55.31921 | 74.31411 | 13885 ft | 324 kts | 265° |
| 2026-05-07 07:29 | 55.31816 | 74.27490 | 13434 ft | 318 kts | 265° |
| 2026-05-07 07:29 | 55.31713 | 74.23643 | 13073 ft | 313 kts | 265° |
| 2026-05-07 07:29 | 55.31604 | 74.19834 | 12588 ft | 311 kts | 265° |
| 2026-05-07 07:30 | 55.31489 | 74.16074 | 12240 ft | 307 kts | 265° |
| 2026-05-07 07:30 | 55.31375 | 74.12365 | 11783 ft | 302 kts | 265° |
| 2026-05-07 07:30 | 55.31251 | 74.08717 | 11403 ft | 295 kts | 264° |
| 2026-05-07 07:30 | 55.31133 | 74.05147 | 11008 ft | 290 kts | 265° |
| 2026-05-07 07:31 | 55.31025 | 74.01633 | 10656 ft | 288 kts | 265° |
| 2026-05-07 07:31 | 55.30913 | 73.98118 | 10253 ft | 286 kts | 265° |
| 2026-05-07 07:31 | 55.30811 | 73.94646 | 9843 ft | 284 kts | 265° |
| 2026-05-07 07:31 | 55.30711 | 73.91206 | 9477 ft | 279 kts | 265° |
| 2026-05-07 07:32 | 55.30602 | 73.87881 | 9123 ft | 273 kts | 265° |
| 2026-05-07 07:32 | 55.30501 | 73.84582 | 8793 ft | 270 kts | 265° |
| 2026-05-07 07:32 | 55.30060 | 73.81460 | 8348 ft | 260 kts | 238° |
| 2026-05-07 07:32 | 55.28828 | 73.79308 | 8082 ft | 249 kts | 211° |
| 2026-05-07 07:33 | 55.27267 | 73.77998 | 7835 ft | 249 kts | 205° |
| 2026-05-07 07:33 | 55.25693 | 73.76785 | 7437 ft | 252 kts | 204° |
| 2026-05-07 07:33 | 55.24079 | 73.75569 | 7081 ft | 252 kts | 204° |
| 2026-05-07 07:33 | 55.22494 | 73.74286 | 6756 ft | 249 kts | 206° |
| 2026-05-07 07:34 | 55.20944 | 73.72941 | 6481 ft | 248 kts | 206° |
| 2026-05-07 07:34 | 55.19390 | 73.71595 | 6050 ft | 251 kts | 206° |
| 2026-05-07 07:34 | 55.17821 | 73.70278 | 5764 ft | 248 kts | 205° |
| 2026-05-07 07:34 | 55.16258 | 73.68989 | 5423 ft | 248 kts | 204° |
| 2026-05-07 07:35 | 55.14683 | 73.67733 | 5116 ft | 247 kts | 204° |
| 2026-05-07 07:35 | 55.13110 | 73.66487 | 4798 ft | 249 kts | 204° |
| 2026-05-07 07:35 | 55.11540 | 73.65242 | 4372 ft | 245 kts | 203° |
| 2026-05-07 07:35 | 55.10013 | 73.64033 | 4116 ft | 237 kts | 203° |
| 2026-05-07 07:36 | 55.08505 | 73.62990 | 3780 ft | 230 kts | 197° |
| 2026-05-07 07:36 | 55.07001 | 73.62246 | 3519 ft | 220 kts | 194° |
| 2026-05-07 07:36 | 55.05568 | 73.61556 | 3192 ft | 206 kts | 195° |
| 2026-05-07 07:36 | 55.04238 | 73.60881 | 2924 ft | 193 kts | 196° |
| 2026-05-07 07:37 | 55.02993 | 73.60227 | 2732 ft | 180 kts | 196° |
| 2026-05-07 07:37 | 55.01853 | 73.59604 | 2576 ft | 169 kts | 201° |
| 2026-05-07 07:37 | 55.00879 | 73.58529 | 2466 ft | 167 kts | 221° |
| 2026-05-07 07:37 | 55.00241 | 73.56857 | 2290 ft | 166 kts | 245° |
| 2026-05-07 07:38 | 54.99911 | 73.55066 | 2772 ft | 149 kts | 249° |
| 2026-05-07 07:38 | 54.99642 | 73.53224 | 2958 ft | 179 kts | 250° |
| 2026-05-07 07:38 | 54.99375 | 73.51087 | 2472 ft | 179 kts | 253° |
| 2026-05-07 07:38 | 54.99111 | 73.49085 | 2203 ft | 163 kts | 251° |
| 2026-05-07 07:39 | 54.98856 | 73.47233 | 1962 ft | 148 kts | 252° |
| 2026-05-07 07:39 | 54.98638 | 73.45527 | 1761 ft | 144 kts | 251° |
| 2026-05-07 07:39 | 54.98411 | 73.43830 | 1577 ft | 142 kts | 250° |
| 2026-05-07 07:39 | 54.98196 | 73.42200 | 1402 ft | 134 kts | 251° |
| 2026-05-07 07:40 | 54.97996 | 73.40658 | 1180 ft | 128 kts | 252° |
| 2026-05-07 07:40 | 54.97794 | 73.39118 | 1013 ft | 131 kts | 251° |
| 2026-05-07 07:40 | 54.97575 | 73.37556 | 826 ft | 135 kts | 252° |
| 2026-05-07 07:40 | 54.97383 | 73.35980 | 683 ft | 131 kts | 251° |
| 2026-05-07 07:41 | 54.97161 | 73.34379 | 482 ft | 139 kts | 252° |
| 2026-05-07 07:41 | 54.96948 | 73.32766 | 317 ft | 136 kts | 254° |
| 2026-05-07 07:41 | 54.96756 | 73.31353 | 306 ft | 99 kts | 258° |
| 2026-05-07 07:41 | 54.96631 | 73.30413 | 311 ft | 65 kts | 256° |
| 2026-05-07 07:42 | 54.96570 | 73.29960 | 314 ft | 25 kts | 257° |
| 2026-05-07 07:42 | 54.96535 | 73.29665 | 316 ft | 25 kts | 256° |
| 2026-05-07 07:42 | 54.96494 | 73.29382 | 318 ft | 23 kts | 257° |
| 2026-05-07 07:42 | 54.96471 | 73.29226 | 317 ft | 10 kts | 255° |
| 2026-05-07 07:43 | 54.96427 | 73.29151 | 319 ft | 10 kts | 175° |
| 2026-05-07 07:43 | 54.96338 | 73.29184 | 319 ft | 15 kts | 166° |
| 2026-05-07 07:43 | 54.96233 | 73.29229 | 318 ft | 16 kts | 167° |
| 2026-05-07 07:43 | 54.96129 | 73.29270 | 318 ft | 15 kts | 167° |
| 2026-05-07 07:44 | 54.96081 | 73.29347 | 318 ft | 10 kts | 92° |
| 2026-05-07 07:44 | 54.96095 | 73.29473 | 318 ft | 12 kts | 77° |
| 2026-05-07 07:44 | 54.96116 | 73.29626 | 316 ft | 14 kts | 76° |
| 2026-05-07 07:44 | 54.96141 | 73.29826 | 317 ft | 20 kts | 76° |
| 2026-05-07 07:45 | 54.96177 | 73.30087 | 314 ft | 23 kts | 74° |
| 2026-05-07 07:45 | 54.96215 | 73.30376 | 314 ft | 26 kts | 77° |
| 2026-05-07 07:45 | 54.96252 | 73.30645 | 313 ft | 19 kts | 77° |
| 2026-05-07 07:45 | 54.96283 | 73.30882 | 311 ft | 21 kts | 77° |
| 2026-05-07 07:46 | 54.96313 | 73.31104 | 310 ft | 15 kts | 77° |
| 2026-05-07 07:46 | 54.96338 | 73.31302 | 309 ft | 17 kts | 77° |
| 2026-05-07 07:46 | 54.96361 | 73.31462 | 307 ft | 12 kts | 77° |
| 2026-05-07 07:46 | 54.96374 | 73.31613 | 307 ft | 11 kts | 117° |
| 2026-05-07 07:47 | 54.96317 | 73.31709 | 307 ft | 12 kts | 137° |
| 2026-05-07 07:47 | 54.96295 | 73.31803 | 306 ft | 8 kts | 58° |
| 2026-05-07 07:47 | 54.96340 | 73.31889 | 306 ft | 11 kts | 47° |
| 2026-05-07 07:47 | 54.96382 | 73.31983 | 307 ft | 6 kts | 88° |
| 2026-05-07 07:48 | 54.96363 | 73.32034 | 306 ft | 4 kts | 138° |
| 2026-05-07 07:48 | 54.96355 | 73.32046 | 305 ft | 0 kts | 137° |